sensor_id;sensor_type;location;lat;lon;timestamp;P1;durP1;ratioP1;P2;durP2;ratioP2
351;SDS011;164;50.784;6.496;2023-03-03T00:01:13;26.10;;;23.88;;
351;SDS011;164;50.784;6.496;2023-03-03T00:03:40;24.33;;;21.15;;
351;SDS011;164;50.784;6.496;2023-03-03T00:06:08;26.60;;;24.02;;
351;SDS011;164;50.784;6.496;2023-03-03T00:08:36;26.48;;;23.42;;
351;SDS011;164;50.784;6.496;2023-03-03T00:11:05;26.83;;;24.23;;
351;SDS011;164;50.784;6.496;2023-03-03T00:13:35;25.40;;;21.63;;
351;SDS011;164;50.784;6.496;2023-03-03T00:16:12;28.70;;;23.55;;
351;SDS011;164;50.784;6.496;2023-03-03T00:18:41;28.85;;;21.40;;
351;SDS011;164;50.784;6.496;2023-03-03T00:21:14;23.90;;;21.92;;
351;SDS011;164;50.784;6.496;2023-03-03T00:23:45;24.75;;;21.45;;
351;SDS011;164;50.784;6.496;2023-03-03T00:26:15;27.92;;;23.38;;
351;SDS011;164;50.784;6.496;2023-03-03T00:28:45;27.55;;;22.50;;
351;SDS011;164;50.784;6.496;2023-03-03T00:31:14;26.02;;;18.88;;
351;SDS011;164;50.784;6.496;2023-03-03T00:33:44;25.30;;;24.00;;
351;SDS011;164;50.784;6.496;2023-03-03T00:36:20;31.15;;;22.77;;
351;SDS011;164;50.784;6.496;2023-03-03T00:38:51;26.02;;;22.98;;
351;SDS011;164;50.784;6.496;2023-03-03T00:41:21;27.23;;;24.65;;
351;SDS011;164;50.784;6.496;2023-03-03T00:43:49;25.52;;;22.65;;
351;SDS011;164;50.784;6.496;2023-03-03T00:46:17;27.17;;;22.95;;
351;SDS011;164;50.784;6.496;2023-03-03T00:48:45;27.38;;;23.35;;
351;SDS011;164;50.784;6.496;2023-03-03T00:51:18;26.10;;;22.17;;
351;SDS011;164;50.784;6.496;2023-03-03T00:53:48;28.38;;;24.33;;
351;SDS011;164;50.784;6.496;2023-03-03T00:56:15;28.60;;;24.90;;
351;SDS011;164;50.784;6.496;2023-03-03T00:58:44;26.52;;;24.02;;
351;SDS011;164;50.784;6.496;2023-03-03T01:01:12;30.70;;;24.65;;
351;SDS011;164;50.784;6.496;2023-03-03T01:03:39;30.48;;;26.17;;
351;SDS011;164;50.784;6.496;2023-03-03T01:06:06;29.90;;;26.92;;
351;SDS011;164;50.784;6.496;2023-03-03T01:08:34;30.20;;;24.65;;
351;SDS011;164;50.784;6.496;2023-03-03T01:11:03;29.10;;;26.90;;
351;SDS011;164;50.784;6.496;2023-03-03T01:13:32;30.65;;;27.05;;
351;SDS011;164;50.784;6.496;2023-03-03T01:16:01;27.73;;;23.52;;
351;SDS011;164;50.784;6.496;2023-03-03T01:18:29;30.60;;;24.35;;
351;SDS011;164;50.784;6.496;2023-03-03T01:20:57;28.98;;;23.92;;
351;SDS011;164;50.784;6.496;2023-03-03T01:23:24;30.45;;;23.40;;
351;SDS011;164;50.784;6.496;2023-03-03T01:25:51;37.80;;;28.65;;
351;SDS011;164;50.784;6.496;2023-03-03T01:28:18;29.77;;;25.30;;
351;SDS011;164;50.784;6.496;2023-03-03T01:30:46;32.80;;;27.70;;
351;SDS011;164;50.784;6.496;2023-03-03T01:33:14;29.17;;;27.83;;
351;SDS011;164;50.784;6.496;2023-03-03T01:35:42;32.72;;;25.67;;
351;SDS011;164;50.784;6.496;2023-03-03T01:38:09;29.20;;;25.38;;
351;SDS011;164;50.784;6.496;2023-03-03T01:40:37;26.42;;;24.58;;
351;SDS011;164;50.784;6.496;2023-03-03T01:43:04;31.88;;;29.33;;
351;SDS011;164;50.784;6.496;2023-03-03T01:45:44;35.08;;;28.90;;
351;SDS011;164;50.784;6.496;2023-03-03T01:48:20;33.78;;;28.85;;
351;SDS011;164;50.784;6.496;2023-03-03T01:50:49;31.95;;;25.30;;
351;SDS011;164;50.784;6.496;2023-03-03T01:53:18;30.13;;;25.35;;
351;SDS011;164;50.784;6.496;2023-03-03T01:55:46;31.23;;;29.02;;
351;SDS011;164;50.784;6.496;2023-03-03T01:58:15;34.03;;;28.95;;
351;SDS011;164;50.784;6.496;2023-03-03T02:00:43;34.05;;;29.40;;
351;SDS011;164;50.784;6.496;2023-03-03T02:03:12;34.60;;;29.42;;
351;SDS011;164;50.784;6.496;2023-03-03T02:05:40;33.03;;;30.83;;
351;SDS011;164;50.784;6.496;2023-03-03T02:08:08;31.27;;;27.23;;
351;SDS011;164;50.784;6.496;2023-03-03T02:10:38;32.83;;;30.27;;
351;SDS011;164;50.784;6.496;2023-03-03T02:13:06;33.97;;;28.83;;
351;SDS011;164;50.784;6.496;2023-03-03T02:15:33;34.97;;;30.42;;
351;SDS011;164;50.784;6.496;2023-03-03T02:18:02;52.47;;;38.70;;
351;SDS011;164;50.784;6.496;2023-03-03T02:20:32;57.10;;;44.90;;
351;SDS011;164;50.784;6.496;2023-03-03T02:23:05;53.92;;;41.97;;
351;SDS011;164;50.784;6.496;2023-03-03T02:25:36;54.97;;;40.03;;
351;SDS011;164;50.784;6.496;2023-03-03T02:28:09;62.53;;;45.85;;
351;SDS011;164;50.784;6.496;2023-03-03T02:30:37;74.55;;;48.13;;
351;SDS011;164;50.784;6.496;2023-03-03T02:33:05;63.80;;;45.03;;
351;SDS011;164;50.784;6.496;2023-03-03T02:35:33;67.30;;;52.33;;
351;SDS011;164;50.784;6.496;2023-03-03T02:38:02;69.00;;;49.97;;
351;SDS011;164;50.784;6.496;2023-03-03T02:40:33;65.20;;;45.33;;
351;SDS011;164;50.784;6.496;2023-03-03T02:43:02;72.05;;;54.47;;
351;SDS011;164;50.784;6.496;2023-03-03T02:45:32;80.18;;;54.97;;
351;SDS011;164;50.784;6.496;2023-03-03T02:47:59;74.45;;;54.83;;
351;SDS011;164;50.784;6.496;2023-03-03T02:50:27;74.22;;;54.60;;
351;SDS011;164;50.784;6.496;2023-03-03T02:52:54;82.80;;;58.53;;
351;SDS011;164;50.784;6.496;2023-03-03T02:55:21;84.50;;;57.50;;
351;SDS011;164;50.784;6.496;2023-03-03T02:57:48;81.05;;;56.00;;
351;SDS011;164;50.784;6.496;2023-03-03T03:00:15;88.10;;;60.22;;
351;SDS011;164;50.784;6.496;2023-03-03T03:02:44;86.30;;;59.85;;
351;SDS011;164;50.784;6.496;2023-03-03T03:05:11;81.57;;;54.30;;
351;SDS011;164;50.784;6.496;2023-03-03T03:07:39;79.47;;;51.95;;
351;SDS011;164;50.784;6.496;2023-03-03T03:10:06;95.07;;;60.08;;
351;SDS011;164;50.784;6.496;2023-03-03T03:12:34;73.07;;;50.65;;
351;SDS011;164;50.784;6.496;2023-03-03T03:15:01;83.13;;;56.67;;
351;SDS011;164;50.784;6.496;2023-03-03T03:17:28;81.95;;;54.38;;
351;SDS011;164;50.784;6.496;2023-03-03T03:19:57;82.68;;;58.13;;
351;SDS011;164;50.784;6.496;2023-03-03T03:22:24;92.20;;;60.08;;
351;SDS011;164;50.784;6.496;2023-03-03T03:24:51;85.28;;;56.83;;
351;SDS011;164;50.784;6.496;2023-03-03T03:27:19;91.15;;;60.13;;
351;SDS011;164;50.784;6.496;2023-03-03T03:29:47;94.78;;;56.30;;
351;SDS011;164;50.784;6.496;2023-03-03T03:32:14;92.57;;;60.25;;
351;SDS011;164;50.784;6.496;2023-03-03T03:34:42;94.25;;;58.75;;
351;SDS011;164;50.784;6.496;2023-03-03T03:37:10;96.40;;;59.08;;
351;SDS011;164;50.784;6.496;2023-03-03T03:42:14;88.50;;;56.28;;
351;SDS011;164;50.784;6.496;2023-03-03T03:44:41;85.07;;;58.33;;
351;SDS011;164;50.784;6.496;2023-03-03T03:47:08;88.45;;;57.15;;
351;SDS011;164;50.784;6.496;2023-03-03T03:49:35;95.95;;;59.22;;
351;SDS011;164;50.784;6.496;2023-03-03T03:52:03;91.43;;;57.17;;
351;SDS011;164;50.784;6.496;2023-03-03T03:54:32;91.13;;;56.33;;
351;SDS011;164;50.784;6.496;2023-03-03T03:56:59;93.72;;;60.15;;
351;SDS011;164;50.784;6.496;2023-03-03T03:59:26;92.55;;;60.42;;
351;SDS011;164;50.784;6.496;2023-03-03T04:01:53;93.53;;;55.03;;
351;SDS011;164;50.784;6.496;2023-03-03T04:04:21;87.85;;;58.03;;
351;SDS011;164;50.784;6.496;2023-03-03T04:06:48;95.43;;;62.22;;
351;SDS011;164;50.784;6.496;2023-03-03T04:09:15;105.45;;;55.63;;
351;SDS011;164;50.784;6.496;2023-03-03T04:11:44;99.88;;;63.05;;
351;SDS011;164;50.784;6.496;2023-03-03T04:14:11;92.40;;;57.15;;
351;SDS011;164;50.784;6.496;2023-03-03T04:22:36;94.63;;;61.17;;
351;SDS011;164;50.784;6.496;2023-03-03T04:25:04;102.00;;;60.80;;
351;SDS011;164;50.784;6.496;2023-03-03T04:27:33;101.25;;;62.00;;
351;SDS011;164;50.784;6.496;2023-03-03T04:30:01;98.55;;;59.47;;
351;SDS011;164;50.784;6.496;2023-03-03T04:32:28;101.55;;;64.15;;
351;SDS011;164;50.784;6.496;2023-03-03T04:34:57;107.78;;;65.93;;
351;SDS011;164;50.784;6.496;2023-03-03T04:37:25;96.32;;;60.30;;
351;SDS011;164;50.784;6.496;2023-03-03T04:42:28;111.38;;;69.07;;
351;SDS011;164;50.784;6.496;2023-03-03T04:44:56;101.60;;;59.13;;
351;SDS011;164;50.784;6.496;2023-03-03T04:47:24;108.75;;;68.13;;
351;SDS011;164;50.784;6.496;2023-03-03T04:49:51;98.60;;;60.70;;
351;SDS011;164;50.784;6.496;2023-03-03T04:54:54;100.10;;;60.05;;
351;SDS011;164;50.784;6.496;2023-03-03T04:57:21;94.80;;;58.45;;
351;SDS011;164;50.784;6.496;2023-03-03T04:59:48;96.28;;;62.72;;
351;SDS011;164;50.784;6.496;2023-03-03T05:02:17;101.95;;;61.40;;
351;SDS011;164;50.784;6.496;2023-03-03T05:04:45;102.80;;;63.85;;
351;SDS011;164;50.784;6.496;2023-03-03T05:07:12;105.95;;;65.65;;
351;SDS011;164;50.784;6.496;2023-03-03T05:09:39;99.85;;;57.22;;
351;SDS011;164;50.784;6.496;2023-03-03T05:12:06;96.43;;;64.28;;
351;SDS011;164;50.784;6.496;2023-03-03T05:14:34;103.28;;;56.92;;
351;SDS011;164;50.784;6.496;2023-03-03T05:17:01;110.72;;;60.75;;
351;SDS011;164;50.784;6.496;2023-03-03T05:19:30;113.28;;;61.30;;
351;SDS011;164;50.784;6.496;2023-03-03T05:21:59;105.03;;;63.20;;
351;SDS011;164;50.784;6.496;2023-03-03T05:24:26;114.43;;;65.18;;
351;SDS011;164;50.784;6.496;2023-03-03T05:26:53;104.03;;;65.15;;
351;SDS011;164;50.784;6.496;2023-03-03T05:29:21;113.05;;;60.58;;
351;SDS011;164;50.784;6.496;2023-03-03T05:31:48;108.78;;;67.90;;
351;SDS011;164;50.784;6.496;2023-03-03T05:34:15;114.93;;;66.00;;
351;SDS011;164;50.784;6.496;2023-03-03T05:36:44;108.80;;;61.90;;
351;SDS011;164;50.784;6.496;2023-03-03T05:39:11;112.07;;;64.43;;
351;SDS011;164;50.784;6.496;2023-03-03T05:41:38;108.70;;;61.20;;
351;SDS011;164;50.784;6.496;2023-03-03T05:44:05;111.70;;;65.43;;
351;SDS011;164;50.784;6.496;2023-03-03T05:46:34;110.63;;;64.30;;
351;SDS011;164;50.784;6.496;2023-03-03T05:49:01;112.50;;;65.43;;
351;SDS011;164;50.784;6.496;2023-03-03T05:51:28;99.65;;;60.78;;
351;SDS011;164;50.784;6.496;2023-03-03T05:53:57;109.82;;;61.72;;
351;SDS011;164;50.784;6.496;2023-03-03T05:56:24;114.97;;;67.22;;
351;SDS011;164;50.784;6.496;2023-03-03T05:58:51;111.30;;;63.65;;
351;SDS011;164;50.784;6.496;2023-03-03T06:01:18;107.13;;;64.95;;
351;SDS011;164;50.784;6.496;2023-03-03T06:03:46;107.22;;;61.22;;
351;SDS011;164;50.784;6.496;2023-03-03T06:06:13;108.90;;;63.33;;
351;SDS011;164;50.784;6.496;2023-03-03T06:08:43;114.07;;;68.22;;
351;SDS011;164;50.784;6.496;2023-03-03T06:11:11;101.03;;;61.00;;
351;SDS011;164;50.784;6.496;2023-03-03T06:13:41;105.45;;;59.95;;
351;SDS011;164;50.784;6.496;2023-03-03T06:16:08;105.00;;;60.20;;
351;SDS011;164;50.784;6.496;2023-03-03T06:18:35;101.57;;;60.55;;
351;SDS011;164;50.784;6.496;2023-03-03T06:21:03;106.00;;;60.85;;
351;SDS011;164;50.784;6.496;2023-03-03T06:23:30;104.90;;;64.43;;
351;SDS011;164;50.784;6.496;2023-03-03T06:25:57;107.43;;;64.90;;
351;SDS011;164;50.784;6.496;2023-03-03T06:28:26;103.10;;;63.95;;
351;SDS011;164;50.784;6.496;2023-03-03T06:30:53;110.47;;;67.22;;
351;SDS011;164;50.784;6.496;2023-03-03T06:33:21;81.03;;;47.58;;
351;SDS011;164;50.784;6.496;2023-03-03T06:35:49;105.63;;;61.22;;
351;SDS011;164;50.784;6.496;2023-03-03T06:38:16;103.45;;;60.45;;
351;SDS011;164;50.784;6.496;2023-03-03T06:40:43;102.13;;;62.55;;
351;SDS011;164;50.784;6.496;2023-03-03T06:43:11;100.22;;;58.58;;
351;SDS011;164;50.784;6.496;2023-03-03T06:45:39;100.05;;;59.70;;
351;SDS011;164;50.784;6.496;2023-03-03T06:48:07;101.50;;;61.20;;
351;SDS011;164;50.784;6.496;2023-03-03T06:50:34;116.78;;;63.70;;
351;SDS011;164;50.784;6.496;2023-03-03T06:53:05;97.78;;;63.30;;
351;SDS011;164;50.784;6.496;2023-03-03T06:55:33;111.55;;;58.60;;
351;SDS011;164;50.784;6.496;2023-03-03T06:58:00;101.90;;;60.85;;
351;SDS011;164;50.784;6.496;2023-03-03T07:00:28;94.88;;;58.78;;
351;SDS011;164;50.784;6.496;2023-03-03T07:02:58;101.95;;;63.15;;
351;SDS011;164;50.784;6.496;2023-03-03T07:05:26;97.22;;;58.30;;
351;SDS011;164;50.784;6.496;2023-03-03T07:07:54;105.15;;;59.38;;
351;SDS011;164;50.784;6.496;2023-03-03T07:10:22;92.68;;;57.78;;
351;SDS011;164;50.784;6.496;2023-03-03T07:12:49;94.30;;;55.65;;
351;SDS011;164;50.784;6.496;2023-03-03T07:15:19;91.10;;;58.05;;
351;SDS011;164;50.784;6.496;2023-03-03T07:17:47;87.80;;;56.33;;
351;SDS011;164;50.784;6.496;2023-03-03T07:20:18;92.30;;;57.15;;
351;SDS011;164;50.784;6.496;2023-03-03T07:22:46;99.85;;;58.22;;
351;SDS011;164;50.784;6.496;2023-03-03T07:25:18;100.10;;;57.30;;
351;SDS011;164;50.784;6.496;2023-03-03T07:27:46;97.65;;;58.50;;
351;SDS011;164;50.784;6.496;2023-03-03T07:30:24;93.25;;;55.67;;
351;SDS011;164;50.784;6.496;2023-03-03T07:32:52;93.43;;;58.65;;
351;SDS011;164;50.784;6.496;2023-03-03T07:35:36;81.07;;;50.95;;
351;SDS011;164;50.784;6.496;2023-03-03T07:38:10;95.00;;;55.63;;
351;SDS011;164;50.784;6.496;2023-03-03T07:40:44;91.97;;;55.70;;
351;SDS011;164;50.784;6.496;2023-03-03T07:46:13;88.55;;;56.78;;
351;SDS011;164;50.784;6.496;2023-03-03T07:48:42;95.15;;;58.55;;
351;SDS011;164;50.784;6.496;2023-03-03T07:51:13;82.10;;;55.83;;
351;SDS011;164;50.784;6.496;2023-03-03T07:53:42;89.55;;;51.78;;
351;SDS011;164;50.784;6.496;2023-03-03T07:56:14;78.50;;;48.95;;
351;SDS011;164;50.784;6.496;2023-03-03T07:58:42;74.95;;;41.40;;
351;SDS011;164;50.784;6.496;2023-03-03T08:03:52;92.40;;;53.08;;
351;SDS011;164;50.784;6.496;2023-03-03T08:06:30;97.18;;;58.15;;
351;SDS011;164;50.784;6.496;2023-03-03T08:08:59;88.72;;;55.05;;
351;SDS011;164;50.784;6.496;2023-03-03T08:11:27;89.25;;;53.00;;
351;SDS011;164;50.784;6.496;2023-03-03T08:13:54;89.20;;;57.55;;
351;SDS011;164;50.784;6.496;2023-03-03T08:16:29;82.32;;;53.28;;
351;SDS011;164;50.784;6.496;2023-03-03T08:18:59;89.55;;;50.90;;
351;SDS011;164;50.784;6.496;2023-03-03T08:21:29;87.97;;;53.78;;
351;SDS011;164;50.784;6.496;2023-03-03T08:23:57;84.40;;;51.00;;
351;SDS011;164;50.784;6.496;2023-03-03T08:26:24;90.95;;;52.83;;
351;SDS011;164;50.784;6.496;2023-03-03T08:28:52;84.93;;;56.53;;
351;SDS011;164;50.784;6.496;2023-03-03T08:31:20;78.35;;;54.50;;
351;SDS011;164;50.784;6.496;2023-03-03T08:33:47;92.43;;;55.10;;
351;SDS011;164;50.784;6.496;2023-03-03T08:36:14;90.20;;;54.83;;
351;SDS011;164;50.784;6.496;2023-03-03T08:38:43;90.90;;;54.95;;
351;SDS011;164;50.784;6.496;2023-03-03T08:41:10;94.38;;;54.95;;
351;SDS011;164;50.784;6.496;2023-03-03T08:43:38;90.63;;;58.42;;
351;SDS011;164;50.784;6.496;2023-03-03T08:46:06;91.25;;;57.58;;
351;SDS011;164;50.784;6.496;2023-03-03T08:48:34;103.32;;;66.97;;
351;SDS011;164;50.784;6.496;2023-03-03T08:51:01;84.95;;;49.85;;
351;SDS011;164;50.784;6.496;2023-03-03T08:53:29;77.90;;;50.83;;
351;SDS011;164;50.784;6.496;2023-03-03T08:55:59;94.07;;;55.50;;
351;SDS011;164;50.784;6.496;2023-03-03T08:58:26;100.07;;;59.13;;
351;SDS011;164;50.784;6.496;2023-03-03T09:00:53;87.50;;;57.20;;
351;SDS011;164;50.784;6.496;2023-03-03T09:03:23;92.63;;;55.83;;
351;SDS011;164;50.784;6.496;2023-03-03T09:05:50;97.95;;;58.90;;
351;SDS011;164;50.784;6.496;2023-03-03T09:08:18;92.70;;;58.35;;
351;SDS011;164;50.784;6.496;2023-03-03T09:10:45;88.05;;;54.28;;
351;SDS011;164;50.784;6.496;2023-03-03T09:13:14;90.07;;;55.72;;
351;SDS011;164;50.784;6.496;2023-03-03T09:15:43;95.47;;;56.53;;
351;SDS011;164;50.784;6.496;2023-03-03T09:18:13;90.63;;;55.38;;
351;SDS011;164;50.784;6.496;2023-03-03T09:20:40;89.60;;;55.55;;
351;SDS011;164;50.784;6.496;2023-03-03T09:23:23;95.72;;;54.70;;
351;SDS011;164;50.784;6.496;2023-03-03T09:25:51;90.30;;;51.63;;
351;SDS011;164;50.784;6.496;2023-03-03T09:28:23;86.93;;;53.88;;
351;SDS011;164;50.784;6.496;2023-03-03T09:30:52;85.60;;;51.35;;
351;SDS011;164;50.784;6.496;2023-03-03T09:33:23;84.35;;;53.60;;
351;SDS011;164;50.784;6.496;2023-03-03T09:35:51;85.10;;;53.38;;
351;SDS011;164;50.784;6.496;2023-03-03T09:38:24;88.53;;;55.13;;
351;SDS011;164;50.784;6.496;2023-03-03T09:46:04;81.07;;;50.30;;
351;SDS011;164;50.784;6.496;2023-03-03T09:51:24;81.55;;;48.45;;
351;SDS011;164;50.784;6.496;2023-03-03T09:54:02;84.68;;;51.92;;
351;SDS011;164;50.784;6.496;2023-03-03T09:56:35;83.70;;;52.35;;
351;SDS011;164;50.784;6.496;2023-03-03T09:59:08;81.35;;;49.90;;
351;SDS011;164;50.784;6.496;2023-03-03T10:01:45;75.25;;;45.83;;
351;SDS011;164;50.784;6.496;2023-03-03T10:07:02;75.55;;;46.92;;
351;SDS011;164;50.784;6.496;2023-03-03T10:09:38;75.05;;;44.33;;
351;SDS011;164;50.784;6.496;2023-03-03T10:12:09;79.28;;;46.10;;
351;SDS011;164;50.784;6.496;2023-03-03T10:14:41;75.72;;;46.08;;
351;SDS011;164;50.784;6.496;2023-03-03T10:17:16;71.93;;;45.22;;
351;SDS011;164;50.784;6.496;2023-03-03T10:19:49;65.60;;;44.83;;
351;SDS011;164;50.784;6.496;2023-03-03T10:22:22;86.20;;;49.20;;
351;SDS011;164;50.784;6.496;2023-03-03T10:27:40;84.75;;;46.97;;
351;SDS011;164;50.784;6.496;2023-03-03T10:30:12;78.43;;;44.53;;
351;SDS011;164;50.784;6.496;2023-03-03T10:32:45;84.88;;;48.92;;
351;SDS011;164;50.784;6.496;2023-03-03T10:38:13;91.95;;;52.45;;
351;SDS011;164;50.784;6.496;2023-03-03T10:40:45;83.38;;;48.78;;
351;SDS011;164;50.784;6.496;2023-03-03T10:43:24;81.07;;;51.08;;
351;SDS011;164;50.784;6.496;2023-03-03T10:46:00;77.18;;;50.75;;
351;SDS011;164;50.784;6.496;2023-03-03T10:48:34;76.88;;;48.65;;
351;SDS011;164;50.784;6.496;2023-03-03T10:51:06;78.40;;;48.70;;
351;SDS011;164;50.784;6.496;2023-03-03T10:53:37;77.38;;;48.10;;
351;SDS011;164;50.784;6.496;2023-03-03T10:58:57;81.75;;;50.15;;
351;SDS011;164;50.784;6.496;2023-03-03T11:01:29;77.30;;;46.63;;
351;SDS011;164;50.784;6.496;2023-03-03T11:04:12;71.30;;;49.72;;
351;SDS011;164;50.784;6.496;2023-03-03T11:06:45;87.03;;;48.45;;
351;SDS011;164;50.784;6.496;2023-03-03T11:09:27;75.25;;;47.22;;
351;SDS011;164;50.784;6.496;2023-03-03T11:11:58;79.38;;;49.50;;
351;SDS011;164;50.784;6.496;2023-03-03T11:14:28;70.85;;;47.10;;
351;SDS011;164;50.784;6.496;2023-03-03T11:16:58;75.03;;;49.28;;
351;SDS011;164;50.784;6.496;2023-03-03T11:19:34;71.57;;;47.72;;
351;SDS011;164;50.784;6.496;2023-03-03T11:22:07;68.80;;;50.15;;
351;SDS011;164;50.784;6.496;2023-03-03T11:24:40;71.65;;;48.08;;
351;SDS011;164;50.784;6.496;2023-03-03T11:27:26;69.30;;;44.67;;
351;SDS011;164;50.784;6.496;2023-03-03T11:29:59;70.35;;;45.13;;
351;SDS011;164;50.784;6.496;2023-03-03T11:32:31;66.85;;;45.83;;
351;SDS011;164;50.784;6.496;2023-03-03T11:35:08;70.40;;;48.30;;
351;SDS011;164;50.784;6.496;2023-03-03T11:37:41;66.60;;;45.90;;
351;SDS011;164;50.784;6.496;2023-03-03T11:40:12;69.38;;;49.55;;
351;SDS011;164;50.784;6.496;2023-03-03T11:42:44;73.40;;;50.03;;
351;SDS011;164;50.784;6.496;2023-03-03T11:45:14;75.03;;;50.10;;
351;SDS011;164;50.784;6.496;2023-03-03T11:47:44;72.68;;;49.65;;
351;SDS011;164;50.784;6.496;2023-03-03T11:50:17;71.10;;;48.38;;
351;SDS011;164;50.784;6.496;2023-03-03T11:52:48;73.25;;;48.67;;
351;SDS011;164;50.784;6.496;2023-03-03T11:55:18;73.97;;;47.78;;
351;SDS011;164;50.784;6.496;2023-03-03T11:57:47;72.95;;;50.28;;
351;SDS011;164;50.784;6.496;2023-03-03T12:00:22;67.82;;;48.75;;
351;SDS011;164;50.784;6.496;2023-03-03T12:03:10;67.70;;;48.65;;
351;SDS011;164;50.784;6.496;2023-03-03T12:05:44;66.00;;;49.95;;
351;SDS011;164;50.784;6.496;2023-03-03T12:08:16;70.05;;;49.17;;
351;SDS011;164;50.784;6.496;2023-03-03T12:10:49;67.85;;;51.10;;
351;SDS011;164;50.784;6.496;2023-03-03T12:13:21;76.43;;;49.88;;
351;SDS011;164;50.784;6.496;2023-03-03T12:15:50;70.32;;;50.33;;
351;SDS011;164;50.784;6.496;2023-03-03T12:18:26;71.78;;;52.00;;
351;SDS011;164;50.784;6.496;2023-03-03T12:20:58;73.07;;;52.33;;
351;SDS011;164;50.784;6.496;2023-03-03T12:23:35;74.68;;;53.05;;
351;SDS011;164;50.784;6.496;2023-03-03T12:26:09;71.80;;;52.15;;
351;SDS011;164;50.784;6.496;2023-03-03T12:28:39;70.47;;;50.95;;
351;SDS011;164;50.784;6.496;2023-03-03T12:31:11;75.13;;;53.22;;
351;SDS011;164;50.784;6.496;2023-03-03T12:33:47;70.03;;;51.70;;
351;SDS011;164;50.784;6.496;2023-03-03T12:36:21;70.72;;;52.75;;
351;SDS011;164;50.784;6.496;2023-03-03T12:38:52;76.18;;;54.45;;
351;SDS011;164;50.784;6.496;2023-03-03T12:41:22;70.82;;;52.53;;
351;SDS011;164;50.784;6.496;2023-03-03T12:43:57;70.68;;;51.35;;
351;SDS011;164;50.784;6.496;2023-03-03T12:46:32;78.65;;;55.45;;
351;SDS011;164;50.784;6.496;2023-03-03T12:49:01;78.60;;;54.78;;
351;SDS011;164;50.784;6.496;2023-03-03T12:51:35;78.72;;;54.53;;
351;SDS011;164;50.784;6.496;2023-03-03T12:54:11;70.80;;;53.97;;
351;SDS011;164;50.784;6.496;2023-03-03T12:56:40;75.97;;;56.15;;
351;SDS011;164;50.784;6.496;2023-03-03T12:59:12;74.53;;;54.05;;
351;SDS011;164;50.784;6.496;2023-03-03T13:01:45;73.32;;;54.45;;
351;SDS011;164;50.784;6.496;2023-03-03T13:04:18;75.68;;;54.97;;
351;SDS011;164;50.784;6.496;2023-03-03T13:06:57;75.30;;;53.35;;
351;SDS011;164;50.784;6.496;2023-03-03T13:09:28;67.88;;;51.50;;
351;SDS011;164;50.784;6.496;2023-03-03T13:12:15;74.45;;;53.45;;
351;SDS011;164;50.784;6.496;2023-03-03T13:14:48;77.72;;;55.60;;
351;SDS011;164;50.784;6.496;2023-03-03T13:17:20;72.22;;;52.38;;
351;SDS011;164;50.784;6.496;2023-03-03T13:19:51;75.43;;;57.00;;
351;SDS011;164;50.784;6.496;2023-03-03T13:22:26;80.53;;;58.42;;
351;SDS011;164;50.784;6.496;2023-03-03T13:24:57;77.35;;;55.58;;
351;SDS011;164;50.784;6.496;2023-03-03T13:27:30;75.13;;;55.13;;
351;SDS011;164;50.784;6.496;2023-03-03T13:29:59;77.60;;;57.40;;
351;SDS011;164;50.784;6.496;2023-03-03T13:32:28;81.88;;;56.72;;
351;SDS011;164;50.784;6.496;2023-03-03T13:34:58;82.18;;;57.33;;
351;SDS011;164;50.784;6.496;2023-03-03T13:37:31;71.82;;;55.65;;
351;SDS011;164;50.784;6.496;2023-03-03T13:39:59;74.80;;;56.53;;
351;SDS011;164;50.784;6.496;2023-03-03T13:42:31;77.65;;;58.95;;
351;SDS011;164;50.784;6.496;2023-03-03T13:44:59;79.65;;;56.95;;
351;SDS011;164;50.784;6.496;2023-03-03T13:47:29;76.55;;;54.65;;
351;SDS011;164;50.784;6.496;2023-03-03T13:50:02;66.25;;;51.10;;
351;SDS011;164;50.784;6.496;2023-03-03T13:52:32;74.95;;;54.63;;
351;SDS011;164;50.784;6.496;2023-03-03T13:55:08;72.85;;;51.15;;
351;SDS011;164;50.784;6.496;2023-03-03T13:57:43;68.45;;;51.60;;
351;SDS011;164;50.784;6.496;2023-03-03T14:00:13;70.05;;;51.13;;
351;SDS011;164;50.784;6.496;2023-03-03T14:02:46;64.35;;;47.40;;
351;SDS011;164;50.784;6.496;2023-03-03T14:05:18;67.63;;;48.83;;
351;SDS011;164;50.784;6.496;2023-03-03T14:07:51;65.10;;;49.28;;
351;SDS011;164;50.784;6.496;2023-03-03T14:10:23;60.47;;;46.03;;
351;SDS011;164;50.784;6.496;2023-03-03T14:12:53;66.28;;;49.05;;
351;SDS011;164;50.784;6.496;2023-03-03T14:15:25;59.78;;;45.47;;
351;SDS011;164;50.784;6.496;2023-03-03T14:18:02;69.78;;;51.00;;
351;SDS011;164;50.784;6.496;2023-03-03T14:20:32;67.45;;;49.45;;
351;SDS011;164;50.784;6.496;2023-03-03T14:23:02;64.03;;;47.03;;
351;SDS011;164;50.784;6.496;2023-03-03T14:25:49;70.07;;;47.65;;
351;SDS011;164;50.784;6.496;2023-03-03T14:28:16;69.57;;;49.97;;
351;SDS011;164;50.784;6.496;2023-03-03T14:30:45;68.05;;;51.90;;
351;SDS011;164;50.784;6.496;2023-03-03T14:33:17;64.70;;;48.38;;
351;SDS011;164;50.784;6.496;2023-03-03T14:35:49;68.50;;;51.22;;
351;SDS011;164;50.784;6.496;2023-03-03T14:38:22;74.10;;;52.45;;
351;SDS011;164;50.784;6.496;2023-03-03T14:41:02;72.22;;;51.65;;
351;SDS011;164;50.784;6.496;2023-03-03T14:43:32;72.68;;;51.42;;
351;SDS011;164;50.784;6.496;2023-03-03T14:46:14;67.22;;;49.67;;
351;SDS011;164;50.784;6.496;2023-03-03T14:48:50;70.70;;;53.42;;
351;SDS011;164;50.784;6.496;2023-03-03T14:51:22;74.60;;;54.13;;
351;SDS011;164;50.784;6.496;2023-03-03T14:53:51;75.03;;;54.88;;
351;SDS011;164;50.784;6.496;2023-03-03T14:56:20;71.85;;;53.38;;
351;SDS011;164;50.784;6.496;2023-03-03T14:58:49;75.90;;;53.38;;
351;SDS011;164;50.784;6.496;2023-03-03T15:01:20;75.97;;;55.10;;
351;SDS011;164;50.784;6.496;2023-03-03T15:03:49;79.20;;;56.42;;
351;SDS011;164;50.784;6.496;2023-03-03T15:06:26;75.47;;;56.35;;
351;SDS011;164;50.784;6.496;2023-03-03T15:08:55;83.63;;;57.13;;
351;SDS011;164;50.784;6.496;2023-03-03T15:11:25;71.38;;;53.22;;
351;SDS011;164;50.784;6.496;2023-03-03T15:13:52;77.25;;;55.65;;
351;SDS011;164;50.784;6.496;2023-03-03T15:16:30;79.10;;;54.70;;
351;SDS011;164;50.784;6.496;2023-03-03T15:21:41;82.05;;;57.00;;
351;SDS011;164;50.784;6.496;2023-03-03T15:24:12;80.28;;;54.58;;
351;SDS011;164;50.784;6.496;2023-03-03T15:26:43;80.95;;;55.90;;
351;SDS011;164;50.784;6.496;2023-03-03T15:29:13;75.35;;;57.65;;
351;SDS011;164;50.784;6.496;2023-03-03T15:31:44;83.45;;;59.10;;
351;SDS011;164;50.784;6.496;2023-03-03T15:34:20;77.38;;;56.90;;
351;SDS011;164;50.784;6.496;2023-03-03T15:36:50;75.78;;;56.78;;
351;SDS011;164;50.784;6.496;2023-03-03T15:47:24;80.47;;;58.55;;
351;SDS011;164;50.784;6.496;2023-03-03T15:50:06;86.75;;;63.72;;
351;SDS011;164;50.784;6.496;2023-03-03T15:52:42;94.03;;;64.53;;
351;SDS011;164;50.784;6.496;2023-03-03T15:57:59;87.15;;;63.17;;
351;SDS011;164;50.784;6.496;2023-03-03T16:00:35;90.60;;;64.60;;
351;SDS011;164;50.784;6.496;2023-03-03T16:03:07;87.70;;;61.90;;
351;SDS011;164;50.784;6.496;2023-03-03T16:05:38;91.00;;;62.03;;
351;SDS011;164;50.784;6.496;2023-03-03T16:08:10;92.47;;;60.55;;
351;SDS011;164;50.784;6.496;2023-03-03T16:10:42;84.40;;;60.20;;
351;SDS011;164;50.784;6.496;2023-03-03T16:13:19;92.03;;;63.15;;
351;SDS011;164;50.784;6.496;2023-03-03T16:15:49;90.22;;;62.70;;
351;SDS011;164;50.784;6.496;2023-03-03T16:18:21;92.22;;;61.72;;
351;SDS011;164;50.784;6.496;2023-03-03T16:20:52;89.13;;;61.47;;
351;SDS011;164;50.784;6.496;2023-03-03T16:23:26;87.53;;;62.08;;